Time;durP1;ratioP1;P1;durP2;ratioP2;P2;SDS_P1;SDS_P2;PMS_P1;PMS_P2;Temp;Humidity;BMP_temperature;BMP_pressure;BME280_temperature;BME280_humidity;BME280_pressure;Samples;Min_cycle;Max_cycle;Signal;HPM_P1;HPM_P2
2021/12/06 00:01:30;;;;;;;31.10;18.92;;;2.80;99.90;;;;;;5115687;28;20019;-71
2021/12/06 00:04:05;;;;;;;31.40;20.42;;;2.80;99.90;;;;;;5116361;28;20047;-71
2021/12/06 00:06:34;;;;;;;34.45;20.33;;;2.70;99.90;;;;;;5115689;28;20019;-71
2021/12/06 00:09:04;;;;;;;27.48;18.13;;;2.70;99.90;;;;;;5115575;28;20024;-71
2021/12/06 00:11:29;;;;;;;28.15;18.52;;;2.60;99.90;;;;;;5114593;28;20040;-71
2021/12/06 00:13:55;;;;;;;30.50;20.17;;;2.60;99.90;;;;;;5115420;28;20016;-71
2021/12/06 00:16:22;;;;;;;34.90;20.88;;;2.60;99.90;;;;;;5080898;28;20015;-71
2021/12/06 00:18:50;;;;;;;34.42;21.83;;;2.60;99.90;;;;;;5116511;28;20421;-71
2021/12/06 00:21:15;;;;;;;30.35;20.27;;;2.60;99.90;;;;;;5097860;28;20031;-71
2021/12/06 00:23:42;;;;;;;36.40;22.42;;;2.60;99.90;;;;;;5080627;28;20024;-71
2021/12/06 00:26:09;;;;;;;30.52;20.33;;;2.60;99.90;;;;;;5115839;27;20059;-71
2021/12/06 00:28:36;;;;;;;30.15;20.27;;;2.60;99.90;;;;;;5115766;28;20015;-71
2021/12/06 00:31:03;;;;;;;37.65;22.95;;;2.60;99.90;;;;;;5114477;28;20106;-71
2021/12/06 00:33:29;;;;;;;31.23;20.00;;;2.60;99.90;;;;;;5115688;28;20427;-71
2021/12/06 00:35:57;;;;;;;34.00;22.02;;;2.50;99.90;;;;;;5097548;28;20027;-71
2021/12/06 00:38:22;;;;;;;31.45;20.70;;;2.50;99.90;;;;;;5114985;28;20031;-71
2021/12/06 00:40:49;;;;;;;30.98;20.10;;;2.60;99.90;;;;;;5114590;28;20031;-71
2021/12/06 00:43:15;;;;;;;32.35;20.60;;;2.50;99.90;;;;;;5097412;28;20076;-71
2021/12/06 00:45:42;;;;;;;35.83;21.23;;;2.50;99.90;;;;;;5114530;28;20030;-71
2021/12/06 00:48:09;;;;;;;34.53;21.67;;;2.50;99.90;;;;;;5097119;28;20026;-71
2021/12/06 00:50:38;;;;;;;34.60;21.38;;;2.50;99.90;;;;;;5113969;28;20023;-71
2021/12/06 00:53:04;;;;;;;34.22;22.42;;;2.50;99.90;;;;;;5114524;28;20027;-71
2021/12/06 00:55:30;;;;;;;41.42;22.02;;;2.50;99.90;;;;;;5096232;28;20020;-71
2021/12/06 00:57:56;;;;;;;36.92;21.08;;;2.80;99.90;;;;;;5113905;28;20031;-71
2021/12/06 01:00:28;;;;;;;29.10;19.73;;;2.80;99.90;;;;;;5080085;28;20034;-71
2021/12/06 01:02:55;;;;;;;36.05;19.27;;;3.00;99.90;;;;;;5096852;28;20477;-72
2021/12/06 01:05:23;;;;;;;34.53;19.05;;;3.10;99.90;;;;;;5114141;28;20094;-71
2021/12/06 01:07:50;;;;;;;35.63;18.85;;;3.20;99.90;;;;;;5114078;28;20022;-72
2021/12/06 01:10:16;;;;;;;32.35;19.55;;;3.30;99.90;;;;;;5096451;28;20524;-72
2021/12/06 01:12:43;;;;;;;27.73;19.17;;;3.40;99.90;;;;;;5114295;28;20364;-72
2021/12/06 01:15:09;;;;;;;36.53;19.17;;;3.30;99.90;;;;;;5096588;28;20028;-72
2021/12/06 01:17:35;;;;;;;28.05;18.30;;;3.20;99.90;;;;;;5096541;28;20034;-71
2021/12/06 01:20:04;;;;;;;27.38;19.00;;;3.00;99.90;;;;;;5114161;28;20473;-71
2021/12/06 01:22:41;;;;;;;36.00;19.73;;;2.90;99.90;;;;;;5113833;28;20478;-71
2021/12/06 01:25:19;;;;;;;30.73;19.63;;;2.80;99.90;;;;;;5114233;28;20055;-71
2021/12/06 01:28:11;;;;;;;32.53;19.65;;;2.70;99.90;;;;;;5115176;28;20028;-71
2021/12/06 01:30:48;;;;;;;32.58;19.73;;;2.70;99.90;;;;;;5114340;28;20051;-71
2021/12/06 01:33:36;;;;;;;33.70;20.83;;;2.60;99.90;;;;;;5098795;28;20119;-71
2021/12/06 01:39:13;;;;;;;32.25;19.63;;;2.50;99.90;;;;;;5113280;28;20023;-71
2021/12/06 01:41:36;;;;;;;31.38;18.40;;;2.40;99.90;;;;;;5113266;28;20028;-71
2021/12/06 01:44:24;;;;;;;32.40;19.52;;;2.20;99.90;;;;;;5113453;28;20027;-69
2021/12/06 01:47:00;;;;;;;33.90;18.77;;;2.10;99.90;;;;;;5114511;28;20050;-70
2021/12/06 01:49:29;;;;;;;30.02;19.42;;;1.90;99.90;;;;;;5114825;28;20153;-69
2021/12/06 01:51:56;;;;;;;31.67;19.55;;;1.90;99.90;;;;;;5112879;28;20464;-70
2021/12/06 01:54:23;;;;;;;33.67;20.42;;;1.80;99.90;;;;;;5113339;28;20024;-70
2021/12/06 01:56:50;;;;;;;36.17;22.77;;;1.70;99.90;;;;;;5114742;28;20026;-71
2021/12/06 01:59:17;;;;;;;36.30;21.67;;;1.70;99.90;;;;;;5114730;28;20012;-71
2021/12/06 02:01:43;;;;;;;43.00;24.85;;;1.70;99.90;;;;;;5114364;28;20055;-70
2021/12/06 02:04:09;;;;;;;38.80;22.83;;;1.70;99.90;;;;;;5112842;28;20472;-71
2021/12/06 02:06:37;;;;;;;32.53;19.90;;;1.60;99.90;;;;;;5096519;28;20028;-71
2021/12/06 02:09:05;;;;;;;38.72;22.02;;;1.50;99.90;;;;;;5113656;28;20055;-71
2021/12/06 02:11:34;;;;;;;31.58;20.40;;;1.40;99.90;;;;;;5112597;28;20044;-71
2021/12/06 02:14:08;;;;;;;26.75;18.67;;;1.30;99.90;;;;;;5112746;28;20080;-71
2021/12/06 02:16:56;;;;;;;31.95;18.90;;;1.10;99.90;;;;;;5114225;28;20042;-69
2021/12/06 02:19:20;;;;;;;33.70;20.40;;;1.00;99.90;;;;;;5113796;28;20020;-71
2021/12/06 02:21:45;;;;;;;38.50;22.25;;;1.00;99.90;;;;;;5114453;28;20482;-71
2021/12/06 02:24:12;;;;;;;36.22;20.98;;;0.90;99.90;;;;;;5114110;28;20030;-71
2021/12/06 02:26:40;;;;;;;31.80;20.20;;;0.80;99.90;;;;;;5114142;28;20457;-71
2021/12/06 02:29:07;;;;;;;31.65;20.35;;;0.70;99.90;;;;;;5114063;28;20384;-71
2021/12/06 02:31:34;;;;;;;34.20;20.67;;;0.60;99.90;;;;;;5114304;28;20030;-71
2021/12/06 02:34:00;;;;;;;38.42;20.08;;;0.50;99.90;;;;;;5112917;28;20102;-71
2021/12/06 02:36:26;;;;;;;38.28;22.23;;;0.50;99.90;;;;;;5113321;28;20020;-71
2021/12/06 02:38:52;;;;;;;36.95;21.75;;;0.40;99.90;;;;;;5114298;28;20501;-71
2021/12/06 02:41:19;;;;;;;42.85;22.23;;;0.40;99.90;;;;;;5114273;28;20040;-71
2021/12/06 02:43:45;;;;;;;39.00;22.98;;;0.40;99.90;;;;;;5113096;28;20027;-71
2021/12/06 02:46:10;;;;;;;42.05;23.50;;;0.30;99.90;;;;;;5112437;28;20024;-71
2021/12/06 02:48:36;;;;;;;43.67;24.83;;;0.30;99.90;;;;;;5114167;28;20030;-71
2021/12/06 02:51:05;;;;;;;47.28;24.77;;;0.30;99.90;;;;;;5114097;28;20035;-71
2021/12/06 02:53:33;;;;;;;54.80;27.00;;;0.40;99.90;;;;;;5113463;28;20389;-71
2021/12/06 02:56:05;;;;;;;53.70;26.92;;;0.50;99.90;;;;;;5095394;28;20034;-71
2021/12/06 03:01:08;;;;;;;52.80;28.00;;;1.30;99.90;;;;;;5113807;28;20383;-71
2021/12/06 03:03:35;;;;;;;54.17;28.67;;;1.20;99.90;;;;;;5114055;28;20119;-71
2021/12/06 03:06:01;;;;;;;47.30;26.77;;;1.00;99.90;;;;;;5112270;28;20055;-71
2021/12/06 03:08:48;;;;;;;48.55;24.98;;;0.80;99.90;;;;;;5112770;28;20047;-71
2021/12/06 03:11:17;;;;;;;41.47;24.55;;;0.60;99.90;;;;;;5111918;28;20066;-71
2021/12/06 03:13:44;;;;;;;45.22;25.08;;;0.50;99.90;;;;;;5113960;28;20019;-70
2021/12/06 03:16:10;;;;;;;40.47;22.73;;;0.30;99.90;;;;;;5112253;28;20051;-71
2021/12/06 03:18:36;;;;;;;42.70;23.52;;;0.10;99.90;;;;;;5115401;28;20027;-71
2021/12/06 03:21:02;;;;;;;36.10;21.77;;;0.10;99.90;;;;;;5082009;28;20389;-71
2021/12/06 03:23:28;;;;;;;36.92;21.85;;;0.00;99.90;;;;;;5098977;28;20038;-71
2021/12/06 03:25:53;;;;;;;38.60;22.65;;;-0.20;99.90;;;;;;5117552;28;20028;-71
2021/12/06 03:28:19;;;;;;;47.60;24.70;;;-0.20;99.90;;;;;;5116109;28;20019;-71
2021/12/06 03:30:46;;;;;;;43.92;24.35;;;-0.30;99.90;;;;;;5098544;28;20464;-71
2021/12/06 03:33:12;;;;;;;48.92;26.15;;;-0.30;99.90;;;;;;5116860;28;20023;-70
2021/12/06 03:35:38;;;;;;;45.28;23.98;;;-0.30;99.90;;;;;;5117346;28;20031;-71
2021/12/06 03:38:04;;;;;;;47.97;24.67;;;-0.30;99.90;;;;;;5098451;28;20054;-71
2021/12/06 03:40:29;;;;;;;38.30;21.90;;;-0.30;99.90;;;;;;5098455;28;20015;-70
2021/12/06 03:42:55;;;;;;;47.00;26.00;;;-0.40;99.90;;;;;;5115406;28;20051;-70
2021/12/06 03:45:21;;;;;;;43.20;23.63;;;-0.40;99.90;;;;;;5116907;28;20028;-70
2021/12/06 03:47:47;;;;;;;48.45;24.67;;;-0.40;99.90;;;;;;5116551;28;20027;-71
2021/12/06 03:50:13;;;;;;;49.15;26.45;;;-0.40;99.90;;;;;;5116791;28;20028;-70
2021/12/06 03:52:38;;;;;;;44.85;23.92;;;-0.40;99.90;;;;;;5116979;28;20043;-71
2021/12/06 03:55:07;;;;;;;46.13;23.80;;;-0.50;99.90;;;;;;5081349;28;20031;-71
2021/12/06 03:57:33;;;;;;;60.17;26.10;;;-0.50;99.90;;;;;;5115967;28;20047;-71
2021/12/06 03:59:59;;;;;;;41.55;23.42;;;-0.40;99.90;;;;;;5098045;28;20020;-71
2021/12/06 04:02:29;;;;;;;42.88;23.08;;;-0.40;99.90;;;;;;5098533;28;20027;-71
2021/12/06 04:04:56;;;;;;;57.00;26.65;;;-0.40;99.90;;;;;;5098435;28;20027;-71
2021/12/06 04:07:23;;;;;;;52.35;25.23;;;-0.50;99.90;;;;;;5116219;27;20016;-71
2021/12/06 04:09:50;;;;;;;50.40;26.40;;;-0.50;99.90;;;;;;5097967;28;20388;-71
2021/12/06 04:12:16;;;;;;;49.28;25.92;;;-0.50;99.90;;;;;;5114676;28;20120;-71
2021/12/06 04:14:42;;;;;;;49.60;24.92;;;-0.50;99.90;;;;;;5097905;28;20361;-71
2021/12/06 04:17:09;;;;;;;53.15;27.70;;;-0.50;99.90;;;;;;5116565;28;20023;-71
2021/12/06 04:19:35;;;;;;;47.63;27.13;;;-0.50;99.90;;;;;;5098389;28;20086;-70
2021/12/06 04:22:02;;;;;;;53.35;27.70;;;-0.40;99.90;;;;;;5114655;28;20054;-71
2021/12/06 04:24:28;;;;;;;54.75;28.98;;;-0.40;99.90;;;;;;5115851;28;20020;-71
2021/12/06 04:26:54;;;;;;;56.67;27.73;;;-0.40;99.90;;;;;;5097492;28;20080;-71
2021/12/06 04:29:19;;;;;;;57.30;28.98;;;-0.30;99.90;;;;;;5114472;28;20027;-70
2021/12/06 04:31:51;;;;;;;56.60;28.75;;;-0.30;99.90;;;;;;5097758;28;20024;-69
2021/12/06 04:34:17;;;;;;;64.05;29.55;;;-0.30;99.90;;;;;;5114738;28;20026;-71
2021/12/06 04:36:44;;;;;;;60.22;29.10;;;-0.20;99.90;;;;;;5114450;28;20099;-70
2021/12/06 04:39:12;;;;;;;63.63;30.50;;;-0.30;99.90;;;;;;5116158;28;20022;-70
2021/12/06 04:41:39;;;;;;;57.78;28.75;;;-0.30;99.90;;;;;;5114304;28;20024;-71
2021/12/06 04:44:05;;;;;;;59.85;28.98;;;-0.30;99.90;;;;;;5114841;28;20044;-70
2021/12/06 04:46:32;;;;;;;58.85;29.23;;;-0.30;99.90;;;;;;5114743;28;20032;-71
2021/12/06 04:48:57;;;;;;;56.70;27.23;;;-0.30;99.90;;;;;;5114473;28;20030;-71
2021/12/06 04:51:23;;;;;;;58.85;27.13;;;-0.40;99.90;;;;;;5097375;28;20035;-69
2021/12/06 04:53:50;;;;;;;53.97;26.65;;;-0.50;99.90;;;;;;5115558;28;20100;-69
2021/12/06 04:56:27;;;;;;;60.35;28.42;;;-0.50;99.90;;;;;;5115496;28;20375;-69
2021/12/06 04:59:06;;;;;;;50.60;24.98;;;-0.60;99.90;;;;;;5096963;28;20024;-69
2021/12/06 05:01:34;;;;;;;55.70;26.90;;;-0.60;99.90;;;;;;5098620;28;20031;-69
2021/12/06 05:04:06;;;;;;;52.90;26.35;;;-0.70;99.90;;;;;;5115350;28;20024;-69
2021/12/06 05:06:36;;;;;;;54.15;26.30;;;-0.70;99.90;;;;;;5115046;28;20024;-70
2021/12/06 05:09:09;;;;;;;55.15;26.45;;;-0.80;99.90;;;;;;5114424;28;20034;-71
2021/12/06 05:11:36;;;;;;;55.65;25.83;;;-0.80;99.90;;;;;;5114891;28;20373;-70
2021/12/06 05:14:02;;;;;;;48.65;25.67;;;-0.90;99.90;;;;;;5115454;28;20015;-71
2021/12/06 05:16:29;;;;;;;53.45;28.23;;;-1.00;99.90;;;;;;5113929;28;20039;-70
2021/12/06 05:18:54;;;;;;;52.88;26.90;;;-1.00;99.90;;;;;;5096577;28;20516;-70
2021/12/06 05:21:20;;;;;;;58.45;28.25;;;-1.00;99.90;;;;;;5115304;28;20035;-70
2021/12/06 05:23:46;;;;;;;56.28;27.40;;;-1.00;99.90;;;;;;5114696;28;20149;-71
2021/12/06 05:26:12;;;;;;;53.13;27.00;;;-1.00;99.90;;;;;;5079577;28;20031;-71
2021/12/06 05:28:43;;;;;;;49.28;26.58;;;-1.00;99.90;;;;;;5113446;28;20023;-71
2021/12/06 05:31:15;;;;;;;67.35;28.73;;;-1.10;99.90;;;;;;5115083;28;20020;-71
2021/12/06 05:33:43;;;;;;;67.50;29.45;;;-1.10;99.90;;;;;;5113732;28;20012;-70
2021/12/06 05:36:09;;;;;;;68.35;32.97;;;-1.10;99.90;;;;;;5113906;28;20031;-71
2021/12/06 05:38:35;;;;;;;79.28;37.35;;;-0.60;99.90;;;;;;5113799;28;20024;-71
2021/12/06 05:41:01;;;;;;;92.93;39.47;;;0.00;99.90;;;;;;5078930;28;20038;-71
2021/12/06 05:43:27;;;;;;;81.57;37.88;;;0.20;99.90;;;;;;5113466;28;20031;-71
2021/12/06 05:45:53;;;;;;;79.35;37.50;;;0.10;99.90;;;;;;5114378;28;20024;-71
2021/12/06 05:48:19;;;;;;;90.25;38.22;;;0.00;99.90;;;;;;5096166;28;20027;-70
2021/12/06 05:50:47;;;;;;;110.47;43.78;;;-0.20;99.90;;;;;;5114645;28;20384;-71
2021/12/06 05:53:13;;;;;;;107.50;44.67;;;0.00;99.90;;;;;;5113629;28;20012;-71
2021/12/06 05:55:40;;;;;;;121.68;46.03;;;0.50;99.90;;;;;;5114778;28;20020;-70
2021/12/06 05:58:08;;;;;;;112.50;44.80;;;0.80;99.90;;;;;;5095893;28;20016;-70
2021/12/06 06:00:35;;;;;;;106.88;45.80;;;0.80;99.90;;;;;;5096468;28;20023;-71
2021/12/06 06:03:03;;;;;;;118.00;44.97;;;0.70;99.90;;;;;;5113234;28;20019;-71
2021/12/06 06:05:30;;;;;;;118.78;44.65;;;0.80;99.90;;;;;;5113169;28;20050;-70
2021/12/06 06:07:56;;;;;;;93.97;39.45;;;0.80;99.90;;;;;;5112781;28;20016;-71
2021/12/06 06:10:22;;;;;;;108.72;42.30;;;0.60;99.90;;;;;;5112999;28;20054;-71
2021/12/06 06:12:47;;;;;;;115.18;44.05;;;0.70;99.90;;;;;;5114505;28;20019;-71
2021/12/06 06:15:13;;;;;;;106.18;42.38;;;0.80;99.90;;;;;;5095683;28;20035;-71
2021/12/06 06:17:42;;;;;;;115.57;46.03;;;0.70;99.90;;;;;;5078864;28;20020;-71
2021/12/06 06:20:15;;;;;;;134.27;48.80;;;1.10;99.90;;;;;;5113350;28;20020;-70
2021/12/06 06:22:41;;;;;;;101.82;37.13;;;1.10;99.90;;;;;;5096419;28;20028;-70
2021/12/06 06:25:07;;;;;;;148.50;48.50;;;1.20;99.90;;;;;;5112599;28;20028;-70
2021/12/06 06:27:33;;;;;;;146.77;50.10;;;1.20;99.90;;;;;;5114363;28;20031;-69
2021/12/06 06:29:58;;;;;;;155.50;51.63;;;1.40;99.90;;;;;;5095564;28;20027;-69
2021/12/06 06:32:24;;;;;;;158.15;53.08;;;1.30;99.90;;;;;;5095463;28;20020;-69
2021/12/06 06:34:50;;;;;;;158.40;51.00;;;1.60;99.90;;;;;;5112489;28;20400;-69
2021/12/06 06:37:15;;;;;;;163.88;52.30;;;1.60;99.90;;;;;;5112565;28;20034;-69
2021/12/06 06:39:41;;;;;;;166.93;51.38;;;1.60;99.90;;;;;;5112502;28;20032;-69
2021/12/06 06:42:06;;;;;;;176.90;54.10;;;1.60;99.90;;;;;;5113079;28;20038;-69
2021/12/06 06:44:32;;;;;;;164.15;51.38;;;1.60;99.90;;;;;;5114198;28;20034;-71
2021/12/06 06:46:58;;;;;;;205.13;55.83;;;1.60;99.90;;;;;;5112761;28;20028;-71
2021/12/06 06:49:25;;;;;;;203.70;54.45;;;1.60;99.90;;;;;;5114131;28;20461;-71
2021/12/06 06:51:50;;;;;;;194.25;54.50;;;1.60;99.90;;;;;;5113986;28;20024;-70
2021/12/06 06:54:16;;;;;;;218.30;58.40;;;1.70;99.90;;;;;;5115608;28;20031;-71
2021/12/06 06:56:42;;;;;;;241.07;58.22;;;1.70;99.90;;;;;;5099261;28;20028;-71
2021/12/06 06:59:07;;;;;;;261.15;57.75;;;1.70;99.90;;;;;;5116171;28;20107;-71
2021/12/06 07:01:34;;;;;;;233.30;55.83;;;1.80;99.90;;;;;;5099446;28;20023;-71
2021/12/06 07:04:00;;;;;;;242.73;56.97;;;1.80;99.90;;;;;;5099227;28;20035;-71
2021/12/06 07:06:27;;;;;;;236.73;57.78;;;1.70;99.90;;;;;;5098616;28;20024;-71
2021/12/06 07:08:56;;;;;;;251.85;60.70;;;1.80;99.90;;;;;;5116332;28;20055;-71
2021/12/06 07:11:23;;;;;;;218.45;58.78;;;1.90;99.90;;;;;;5100723;28;20043;-71
2021/12/06 07:13:48;;;;;;;255.32;59.80;;;1.90;99.90;;;;;;5099431;28;20058;-71
2021/12/06 07:16:16;;;;;;;240.73;59.65;;;1.90;99.90;;;;;;5116157;28;20024;-71
2021/12/06 07:18:42;;;;;;;226.15;57.80;;;1.90;99.90;;;;;;5115785;28;20448;-71
2021/12/06 07:21:08;;;;;;;243.40;61.50;;;2.00;99.90;;;;;;5115741;28;20047;-71
2021/12/06 07:23:38;;;;;;;271.27;62.33;;;1.90;99.90;;;;;;5115744;28;20035;-71
2021/12/06 07:26:06;;;;;;;263.65;61.20;;;2.00;99.90;;;;;;5116790;28;20372;-71
2021/12/06 07:28:32;;;;;;;225.07;59.83;;;2.00;99.90;;;;;;5098714;28;20035;-71
2021/12/06 07:30:58;;;;;;;227.30;61.85;;;1.90;99.90;;;;;;5116697;28;20028;-71
2021/12/06 07:33:25;;;;;;;269.58;62.88;;;1.90;99.90;;;;;;5116990;28;20072;-71
2021/12/06 07:35:51;;;;;;;241.57;63.47;;;1.90;99.90;;;;;;5115679;28;20020;-71
2021/12/06 07:38:17;;;;;;;243.52;64.07;;;1.90;99.90;;;;;;5114471;28;20483;-71
2021/12/06 07:40:42;;;;;;;232.75;63.97;;;2.00;99.90;;;;;;5116599;28;20027;-71
2021/12/06 07:43:08;;;;;;;223.75;62.50;;;2.00;99.90;;;;;;5114971;28;20345;-71
2021/12/06 07:45:34;;;;;;;236.73;63.17;;;2.10;99.90;;;;;;5115887;28;20069;-71
2021/12/06 07:48:00;;;;;;;190.88;62.28;;;2.10;99.90;;;;;;5094056;28;20028;-71
2021/12/06 07:50:25;;;;;;;211.65;61.72;;;2.10;99.90;;;;;;5099649;28;20086;-71
2021/12/06 07:52:52;;;;;;;218.77;64.18;;;2.20;99.90;;;;;;5099831;28;20019;-71
2021/12/06 07:55:20;;;;;;;198.13;60.20;;;2.30;99.90;;;;;;5115980;28;20391;-71
2021/12/06 07:57:46;;;;;;;209.90;63.97;;;2.20;99.90;;;;;;5095400;28;20026;-71
2021/12/06 08:00:16;;;;;;;225.15;63.88;;;2.20;99.90;;;;;;5088444;28;20019;-69
2021/12/06 08:02:42;;;;;;;231.25;65.38;;;2.20;99.90;;;;;;5110878;28;20024;-68
2021/12/06 08:05:39;;;;;;;208.93;64.28;;;2.30;99.90;;;;;;5079268;28;20024;-69
2021/12/06 08:07:54;;;;;;;220.15;64.70;;;2.30;99.90;;;;;;5107077;28;20496;-69
2021/12/06 08:10:20;;;;;;;225.57;66.07;;;2.30;99.90;;;;;;5108738;28;20078;-69
2021/12/06 08:12:45;;;;;;;231.18;66.45;;;2.30;99.90;;;;;;5101012;28;20054;-69
2021/12/06 08:15:12;;;;;;;223.73;65.88;;;2.30;99.90;;;;;;5109686;28;20380;-70
2021/12/06 08:17:37;;;;;;;226.70;64.60;;;2.40;99.90;;;;;;5107539;28;20365;-70
2021/12/06 08:20:05;;;;;;;207.63;65.00;;;2.40;99.90;;;;;;5109075;28;20087;-69
2021/12/06 08:22:31;;;;;;;218.75;66.28;;;2.40;99.90;;;;;;5109594;27;20492;-69
2021/12/06 08:24:57;;;;;;;210.90;66.03;;;2.40;99.90;;;;;;5109189;28;20023;-70
2021/12/06 08:27:22;;;;;;;225.80;67.72;;;2.40;99.90;;;;;;5095745;28;20039;-70
2021/12/06 08:29:48;;;;;;;215.60;66.38;;;2.40;99.90;;;;;;5115451;28;20023;-69
2021/12/06 08:32:14;;;;;;;245.73;66.78;;;2.40;99.90;;;;;;5114674;28;20392;-69
2021/12/06 08:34:41;;;;;;;217.65;67.75;;;2.40;99.90;;;;;;5099427;28;20481;-70
2021/12/06 08:37:08;;;;;;;203.95;69.43;;;2.40;99.90;;;;;;5101721;28;20434;-69
2021/12/06 08:39:34;;;;;;;209.00;69.00;;;2.30;99.90;;;;;;5095860;28;20020;-69
2021/12/06 08:42:00;;;;;;;220.00;70.88;;;2.30;99.90;;;;;;5096973;28;20034;-69
2021/12/06 08:44:25;;;;;;;206.55;68.88;;;2.30;99.90;;;;;;5113259;28;20452;-69
2021/12/06 08:46:51;;;;;;;215.95;71.68;;;2.30;99.90;;;;;;5094901;28;20036;-71
2021/12/06 08:49:17;;;;;;;197.75;70.35;;;2.40;99.90;;;;;;5094883;28;20128;-71
2021/12/06 08:51:47;;;;;;;200.48;70.13;;;2.30;99.90;;;;;;5114086;28;20562;-70
2021/12/06 08:54:18;;;;;;;209.60;71.47;;;2.40;99.90;;;;;;5096602;28;20028;-70
2021/12/06 08:56:44;;;;;;;187.70;71.82;;;2.50;99.90;;;;;;5095802;28;20034;-70
2021/12/06 08:59:10;;;;;;;201.27;70.00;;;2.60;99.90;;;;;;5113495;28;20027;-70
2021/12/06 09:01:37;;;;;;;210.68;72.32;;;2.60;99.90;;;;;;5113770;28;20024;-70
2021/12/06 09:04:04;;;;;;;199.73;70.18;;;2.70;99.90;;;;;;5113203;28;20373;-70
2021/12/06 09:06:29;;;;;;;187.68;65.22;;;2.70;99.90;;;;;;5110462;28;20026;-70
2021/12/06 09:08:55;;;;;;;214.98;63.92;;;2.50;99.90;;;;;;5107655;28;20035;-70
2021/12/06 09:11:22;;;;;;;200.45;57.35;;;2.30;99.90;;;;;;5098718;28;20424;-70
2021/12/06 09:13:47;;;;;;;241.38;57.60;;;2.20;99.90;;;;;;5112437;28;20023;-70
2021/12/06 09:16:14;;;;;;;308.02;54.63;;;2.20;99.90;;;;;;5113194;28;20353;-70
2021/12/06 09:18:42;;;;;;;269.45;51.50;;;2.20;99.90;;;;;;5090896;28;20073;-70
2021/12/06 09:21:13;;;;;;;260.10;50.42;;;2.10;99.90;;;;;;5104331;28;20549;-70
2021/12/06 09:23:40;;;;;;;261.85;47.83;;;2.10;99.90;;;;;;5112726;28;20408;-70
2021/12/06 09:26:06;;;;;;;239.90;45.17;;;2.10;99.90;;;;;;5093577;28;20055;-69
2021/12/06 09:28:33;;;;;;;222.75;43.03;;;2.20;99.90;;;;;;5080360;28;20065;-69
2021/12/06 09:31:01;;;;;;;223.40;43.65;;;2.30;99.90;;;;;;5111798;28;20065;-70
2021/12/06 09:33:28;;;;;;;224.20;41.20;;;2.30;99.90;;;;;;5096770;28;20107;-68
2021/12/06 09:35:57;;;;;;;141.55;39.40;;;2.20;99.90;;;;;;5111960;28;20030;-69
2021/12/06 09:38:27;;;;;;;144.85;40.85;;;2.40;99.90;;;;;;5093813;28;20208;-69
2021/12/06 09:40:55;;;;;;;132.55;40.15;;;2.40;99.90;;;;;;5092543;28;20028;-68
2021/12/06 09:43:22;;;;;;;170.23;44.80;;;2.60;99.90;;;;;;5094446;28;20354;-69
2021/12/06 09:45:48;;;;;;;118.05;44.90;;;2.70;99.90;;;;;;5111827;28;20380;-69
2021/12/06 09:48:16;;;;;;;245.52;56.20;;;2.80;99.90;;;;;;5114147;28;20038;-70
2021/12/06 09:50:47;;;;;;;147.52;42.08;;;2.90;99.90;;;;;;5095805;28;20028;-68
2021/12/06 09:53:17;;;;;;;169.43;43.40;;;2.90;99.90;;;;;;5093869;28;20016;-67
2021/12/06 09:55:44;;;;;;;157.57;43.72;;;2.80;99.90;;;;;;5111181;28;20027;-68
2021/12/06 09:58:10;;;;;;;120.85;44.20;;;2.80;99.90;;;;;;5113931;28;20092;-68
2021/12/06 10:00:43;;;;;;;200.75;46.95;;;2.90;99.90;;;;;;5110463;28;20439;-70
2021/12/06 10:03:10;;;;;;;175.55;47.60;;;2.80;99.90;;;;;;5092585;28;20016;-69
2021/12/06 10:05:36;;;;;;;123.25;43.83;;;2.80;99.90;;;;;;5103744;28;20456;-70
2021/12/06 10:08:03;;;;;;;109.15;43.20;;;2.80;99.90;;;;;;5112177;28;20020;-70
2021/12/06 10:10:30;;;;;;;115.03;42.35;;;3.00;99.90;;;;;;5097822;28;20047;-70
2021/12/06 10:12:58;;;;;;;100.82;42.17;;;3.20;99.90;;;;;;5092839;28;20358;-69
2021/12/06 10:15:27;;;;;;;89.25;43.67;;;3.40;99.90;;;;;;5109659;28;20026;-69
2021/12/06 10:17:55;;;;;;;95.30;40.50;;;3.50;99.90;;;;;;5112889;28;20051;-70
2021/12/06 10:20:23;;;;;;;82.07;38.90;;;3.40;99.90;;;;;;5087855;28;20476;-70
2021/12/06 10:22:50;;;;;;;118.18;42.10;;;3.30;99.90;;;;;;5095759;28;20066;-70
2021/12/06 10:25:17;;;;;;;123.45;43.15;;;3.30;99.90;;;;;;5094949;28;20365;-70
2021/12/06 10:28:04;;;;;;;94.45;39.65;;;3.20;99.90;;;;;;5115170;28;20044;-68
2021/12/06 10:30:34;;;;;;;79.07;40.72;;;3.10;99.90;;;;;;5116902;28;20508;-72
2021/12/06 10:33:04;;;;;;;75.05;38.60;;;3.30;99.90;;;;;;5107268;28;20032;-71
2021/12/06 10:35:30;;;;;;;66.65;36.53;;;3.40;99.90;;;;;;5100891;28;20023;-71
2021/12/06 10:37:57;;;;;;;68.82;35.67;;;3.50;99.90;;;;;;5078492;28;20115;-70
2021/12/06 10:40:33;;;;;;;75.65;35.72;;;3.40;99.90;;;;;;5116755;28;20507;-70
2021/12/06 10:43:04;;;;;;;60.45;31.98;;;3.30;99.90;;;;;;5096396;28;20035;-70
2021/12/06 10:45:34;;;;;;;56.50;31.42;;;3.30;99.90;;;;;;5098871;28;20024;-70
2021/12/06 10:48:15;;;;;;;62.88;33.72;;;3.20;99.90;;;;;;5099238;28;20031;-70
2021/12/06 10:50:47;;;;;;;70.03;34.70;;;3.20;99.90;;;;;;5116486;28;20031;-71
2021/12/06 10:53:14;;;;;;;64.43;33.15;;;3.30;99.90;;;;;;5098411;28;20031;-71
2021/12/06 10:55:41;;;;;;;75.93;35.95;;;3.40;99.90;;;;;;5115914;28;20481;-71
2021/12/06 10:58:12;;;;;;;56.78;33.95;;;3.80;99.90;;;;;;5115844;28;20032;-69
2021/12/06 11:06:09;;;;;;;42.70;24.38;;;5.90;99.90;;;;;;5114823;27;20387;-71
2021/12/06 11:08:36;;;;;;;39.22;24.42;;;5.70;99.90;;;;;;5122680;27;20058;-69
2021/12/06 11:11:08;;;;;;;40.13;23.65;;;5.60;99.90;;;;;;5114414;28;20024;-70
2021/12/06 11:13:38;;;;;;;40.58;25.20;;;5.30;99.90;;;;;;5117048;28;20019;-71
2021/12/06 11:16:14;;;;;;;39.83;25.10;;;5.00;99.90;;;;;;5127455;27;20046;-70
2021/12/06 11:19:04;;;;;;;42.60;25.67;;;4.80;99.90;;;;;;5128830;28;20015;-70
2021/12/06 11:21:47;;;;;;;41.22;25.63;;;4.80;99.90;;;;;;5129578;27;20019;-69
2021/12/06 11:24:30;;;;;;;43.67;24.63;;;4.90;99.90;;;;;;5128196;27;20059;-70
2021/12/06 11:26:59;;;;;;;;;;;4.90;99.90;;;;;;5119835;28;20024;-70
2021/12/06 11:29:31;;;;;;;43.88;25.25;;;4.60;99.90;;;;;;5131425;27;19968;-69
2021/12/06 11:32:18;;;;;;;43.95;26.13;;;4.50;99.90;;;;;;5127151;27;20034;-69
2021/12/06 11:34:50;;;;;;;44.00;26.83;;;4.80;99.90;;;;;;5090826;28;20028;-69
2021/12/06 11:37:21;;;;;;;49.38;29.23;;;5.00;99.90;;;;;;5109203;28;20028;-70
2021/12/06 11:39:58;;;;;;;43.47;27.08;;;5.00;99.90;;;;;;5095083;28;20111;-70
2021/12/06 11:42:24;;;;;;;45.80;28.40;;;5.00;99.90;;;;;;5082525;28;20035;-70
2021/12/06 11:44:50;;;;;;;47.42;28.90;;;5.10;99.90;;;;;;5112941;28;20035;-70
2021/12/06 11:47:18;;;;;;;44.72;28.42;;;5.20;99.90;;;;;;5109039;28;20412;-70
2021/12/06 11:49:52;;;;;;;43.50;26.73;;;5.10;99.90;;;;;;5109615;28;20389;-70
2021/12/06 11:52:25;;;;;;;54.63;29.50;;;5.00;99.90;;;;;;5106233;28;20027;-70
2021/12/06 11:54:57;;;;;;;52.28;28.83;;;4.80;99.90;;;;;;5115983;27;20028;-71
2021/12/06 11:57:31;;;;;;;51.95;29.83;;;4.70;99.90;;;;;;5120866;28;20031;-72
2021/12/06 12:00:19;;;;;;;51.35;28.92;;;4.60;99.90;;;;;;5125441;28;20035;-71
2021/12/06 12:02:58;;;;;;;58.38;33.30;;;4.60;99.90;;;;;;5110138;28;20031;-72
2021/12/06 12:05:39;;;;;;;53.63;30.55;;;4.80;99.90;;;;;;5117451;28;20047;-70
2021/12/06 12:08:11;;;;;;;50.90;30.17;;;4.70;99.90;;;;;;5111697;28;20116;-70
2021/12/06 12:10:46;;;;;;;52.20;30.80;;;4.90;99.90;;;;;;5091315;28;20023;-70
2021/12/06 12:16:03;;;;;;;53.97;30.77;;;4.80;99.90;;;;;;5111693;27;20182;-70
2021/12/06 12:18:31;;;;;;;52.53;31.65;;;4.90;99.90;;;;;;5084124;28;20024;-70
2021/12/06 12:20:57;;;;;;;48.42;28.65;;;4.70;99.90;;;;;;5110720;28;20089;-70
2021/12/06 12:23:26;;;;;;;50.40;29.00;;;4.60;99.90;;;;;;5081946;28;20082;-70
2021/12/06 12:26:01;;;;;;;45.75;26.55;;;4.60;99.90;;;;;;5097604;28;20024;-70
2021/12/06 12:28:36;;;;;;;44.90;26.85;;;4.50;99.90;;;;;;5087640;28;20078;-70
2021/12/06 12:31:03;;;;;;;42.75;25.55;;;4.60;99.90;;;;;;5093608;28;20028;-71
2021/12/06 12:33:29;;;;;;;45.88;27.23;;;4.70;99.90;;;;;;5107191;28;20020;-71
2021/12/06 12:36:01;;;;;;;46.90;26.23;;;4.80;99.90;;;;;;5074820;28;20478;-70
2021/12/06 12:38:29;;;;;;;48.35;26.90;;;4.90;99.90;;;;;;5099237;28;20385;-70
2021/12/06 12:41:02;;;;;;;46.60;26.52;;;5.00;99.90;;;;;;5094688;28;20024;-70
2021/12/06 12:43:40;;;;;;;40.42;25.00;;;5.10;99.90;;;;;;5069717;28;20412;-71
2021/12/06 12:46:10;;;;;;;45.38;25.25;;;5.10;99.90;;;;;;5072177;28;20051;-72
2021/12/06 12:48:57;;;;;;;39.47;24.05;;;5.10;99.90;;;;;;5093244;28;20024;-71
2021/12/06 12:51:34;;;;;;;46.70;27.85;;;4.90;99.90;;;;;;5076195;28;20024;-71